sensor_id;sensor_type;location;lat;lon;timestamp;temperature;humidity
3866;DHT22;1948;53.250;10.412;2023-05-07T00:01:00;9.60;99.90
3866;DHT22;1948;53.250;10.412;2023-05-07T00:03:32;9.60;99.90
3866;DHT22;1948;53.250;10.412;2023-05-07T00:05:59;9.60;99.90
3866;DHT22;1948;53.250;10.412;2023-05-07T00:08:29;9.70;99.90
3866;DHT22;1948;53.250;10.412;2023-05-07T00:10:58;9.60;99.90
3866;DHT22;1948;53.250;10.412;2023-05-07T00:13:25;9.70;99.90
3866;DHT22;1948;53.250;10.412;2023-05-07T00:15:52;9.70;99.90
3866;DHT22;1948;53.250;10.412;2023-05-07T00:18:19;9.70;99.90
3866;DHT22;1948;53.250;10.412;2023-05-07T00:20:48;9.70;99.90
3866;DHT22;1948;53.250;10.412;2023-05-07T00:23:15;9.70;99.90
3866;DHT22;1948;53.250;10.412;2023-05-07T00:25:42;9.60;99.90
3866;DHT22;1948;53.250;10.412;2023-05-07T00:28:09;9.70;99.90
3866;DHT22;1948;53.250;10.412;2023-05-07T00:30:38;9.80;99.90
3866;DHT22;1948;53.250;10.412;2023-05-07T00:33:05;9.80;99.90
3866;DHT22;1948;53.250;10.412;2023-05-07T00:35:35;9.90;99.90
3866;DHT22;1948;53.250;10.412;2023-05-07T00:38:02;9.90;99.90
3866;DHT22;1948;53.250;10.412;2023-05-07T00:40:31;9.80;99.90
3866;DHT22;1948;53.250;10.412;2023-05-07T00:42:58;9.80;99.90
3866;DHT22;1948;53.250;10.412;2023-05-07T00:45:29;9.80;99.90
3866;DHT22;1948;53.250;10.412;2023-05-07T00:47:59;9.80;99.90
3866;DHT22;1948;53.250;10.412;2023-05-07T00:50:30;9.90;99.90
3866;DHT22;1948;53.250;10.412;2023-05-07T00:52:58;9.90;99.90
3866;DHT22;1948;53.250;10.412;2023-05-07T00:55:26;9.90;99.90
3866;DHT22;1948;53.250;10.412;2023-05-07T00:57:58;9.90;99.90
3866;DHT22;1948;53.250;10.412;2023-05-07T01:00:25;10.00;99.90
3866;DHT22;1948;53.250;10.412;2023-05-07T01:02:52;10.00;99.90
3866;DHT22;1948;53.250;10.412;2023-05-07T01:05:20;10.00;99.90
3866;DHT22;1948;53.250;10.412;2023-05-07T01:07:54;10.00;99.90
3866;DHT22;1948;53.250;10.412;2023-05-07T01:10:22;10.00;99.90
3866;DHT22;1948;53.250;10.412;2023-05-07T01:12:54;10.00;99.90
3866;DHT22;1948;53.250;10.412;2023-05-07T01:15:21;9.90;99.90
3866;DHT22;1948;53.250;10.412;2023-05-07T01:17:48;9.80;99.90
3866;DHT22;1948;53.250;10.412;2023-05-07T01:20:15;9.80;99.90
3866;DHT22;1948;53.250;10.412;2023-05-07T01:22:43;9.80;99.90
3866;DHT22;1948;53.250;10.412;2023-05-07T01:25:12;9.70;99.90
3866;DHT22;1948;53.250;10.412;2023-05-07T01:27:40;9.80;99.90
3866;DHT22;1948;53.250;10.412;2023-05-07T01:30:07;9.80;99.90
3866;DHT22;1948;53.250;10.412;2023-05-07T01:32:40;9.90;99.90
3866;DHT22;1948;53.250;10.412;2023-05-07T01:35:27;9.80;99.90
3866;DHT22;1948;53.250;10.412;2023-05-07T01:37:56;9.80;99.90
3866;DHT22;1948;53.250;10.412;2023-05-07T01:40:26;9.80;99.90
3866;DHT22;1948;53.250;10.412;2023-05-07T01:42:56;9.80;99.90
3866;DHT22;1948;53.250;10.412;2023-05-07T01:45:26;9.80;99.90
3866;DHT22;1948;53.250;10.412;2023-05-07T01:47:55;9.80;99.90
3866;DHT22;1948;53.250;10.412;2023-05-07T01:50:23;9.70;99.90
3866;DHT22;1948;53.250;10.412;2023-05-07T01:52:52;9.80;99.90
3866;DHT22;1948;53.250;10.412;2023-05-07T01:55:24;9.70;99.90
3866;DHT22;1948;53.250;10.412;2023-05-07T01:57:51;9.70;99.90
3866;DHT22;1948;53.250;10.412;2023-05-07T02:00:18;9.60;99.90
3866;DHT22;1948;53.250;10.412;2023-05-07T02:02:45;9.60;99.90
3866;DHT22;1948;53.250;10.412;2023-05-07T02:05:15;9.50;99.90
3866;DHT22;1948;53.250;10.412;2023-05-07T02:07:42;9.60;99.90
3866;DHT22;1948;53.250;10.412;2023-05-07T02:10:09;9.70;99.90
3866;DHT22;1948;53.250;10.412;2023-05-07T02:12:39;9.70;99.90
3866;DHT22;1948;53.250;10.412;2023-05-07T02:15:06;9.60;99.90
3866;DHT22;1948;53.250;10.412;2023-05-07T02:17:34;9.60;99.90
3866;DHT22;1948;53.250;10.412;2023-05-07T02:20:02;9.50;99.90
3866;DHT22;1948;53.250;10.412;2023-05-07T02:22:34;9.60;99.90
3866;DHT22;1948;53.250;10.412;2023-05-07T02:25:00;9.60;99.90
3866;DHT22;1948;53.250;10.412;2023-05-07T02:27:27;9.50;99.90
3866;DHT22;1948;53.250;10.412;2023-05-07T02:29:54;9.60;99.90
3866;DHT22;1948;53.250;10.412;2023-05-07T02:32:23;9.60;99.90
3866;DHT22;1948;53.250;10.412;2023-05-07T02:34:53;9.60;99.90
3866;DHT22;1948;53.250;10.412;2023-05-07T02:37:20;9.60;99.90
3866;DHT22;1948;53.250;10.412;2023-05-07T02:39:51;9.60;99.90
3866;DHT22;1948;53.250;10.412;2023-05-07T02:42:23;9.70;99.90
3866;DHT22;1948;53.250;10.412;2023-05-07T02:44:49;9.60;99.90
3866;DHT22;1948;53.250;10.412;2023-05-07T02:47:19;9.70;99.90
3866;DHT22;1948;53.250;10.412;2023-05-07T02:49:45;9.80;99.90
3866;DHT22;1948;53.250;10.412;2023-05-07T02:52:17;9.80;99.90
3866;DHT22;1948;53.250;10.412;2023-05-07T02:54:44;9.80;99.90
3866;DHT22;1948;53.250;10.412;2023-05-07T02:57:11;9.80;99.90
3866;DHT22;1948;53.250;10.412;2023-05-07T02:59:42;9.80;99.90
3866;DHT22;1948;53.250;10.412;2023-05-07T03:02:09;9.80;99.90
3866;DHT22;1948;53.250;10.412;2023-05-07T03:04:36;9.80;99.90
3866;DHT22;1948;53.250;10.412;2023-05-07T03:07:04;9.80;99.90
3866;DHT22;1948;53.250;10.412;2023-05-07T03:09:33;9.70;99.90
3866;DHT22;1948;53.250;10.412;2023-05-07T03:12:03;9.70;99.90
3866;DHT22;1948;53.250;10.412;2023-05-07T03:14:30;9.70;99.90
3866;DHT22;1948;53.250;10.412;2023-05-07T03:16:57;9.70;99.90
3866;DHT22;1948;53.250;10.412;2023-05-07T03:19:27;9.70;99.90
3866;DHT22;1948;53.250;10.412;2023-05-07T03:21:57;9.70;99.90
3866;DHT22;1948;53.250;10.412;2023-05-07T03:24:27;9.70;99.90
3866;DHT22;1948;53.250;10.412;2023-05-07T03:26:54;9.80;99.90
3866;DHT22;1948;53.250;10.412;2023-05-07T03:29:21;9.80;99.90
3866;DHT22;1948;53.250;10.412;2023-05-07T03:31:48;9.80;99.90
3866;DHT22;1948;53.250;10.412;2023-05-07T03:34:15;9.80;99.90
3866;DHT22;1948;53.250;10.412;2023-05-07T03:36:45;9.80;99.90
3866;DHT22;1948;53.250;10.412;2023-05-07T03:39:12;9.80;99.90
3866;DHT22;1948;53.250;10.412;2023-05-07T03:41:42;9.80;99.90
3866;DHT22;1948;53.250;10.412;2023-05-07T03:44:11;9.80;99.90
3866;DHT22;1948;53.250;10.412;2023-05-07T03:46:38;9.70;99.90
3866;DHT22;1948;53.250;10.412;2023-05-07T03:49:05;9.70;99.90
3866;DHT22;1948;53.250;10.412;2023-05-07T03:51:34;9.70;99.90
3866;DHT22;1948;53.250;10.412;2023-05-07T03:54:04;9.70;99.90
3866;DHT22;1948;53.250;10.412;2023-05-07T03:56:33;9.60;99.90
3866;DHT22;1948;53.250;10.412;2023-05-07T03:59:01;9.60;99.90
3866;DHT22;1948;53.250;10.412;2023-05-07T04:01:28;9.60;99.90
3866;DHT22;1948;53.250;10.412;2023-05-07T04:03:56;9.60;99.90
3866;DHT22;1948;53.250;10.412;2023-05-07T04:06:23;9.70;99.90
3866;DHT22;1948;53.250;10.412;2023-05-07T04:08:54;9.70;99.90
3866;DHT22;1948;53.250;10.412;2023-05-07T04:11:20;9.60;99.90
3866;DHT22;1948;53.250;10.412;2023-05-07T04:13:47;9.70;99.90
3866;DHT22;1948;53.250;10.412;2023-05-07T04:16:17;9.70;99.90
3866;DHT22;1948;53.250;10.412;2023-05-07T04:18:44;9.70;99.90
3866;DHT22;1948;53.250;10.412;2023-05-07T04:21:20;9.60;99.90
3866;DHT22;1948;53.250;10.412;2023-05-07T04:23:51;9.60;99.90
3866;DHT22;1948;53.250;10.412;2023-05-07T04:26:20;9.60;99.90
3866;DHT22;1948;53.250;10.412;2023-05-07T04:28:47;9.60;99.90
3866;DHT22;1948;53.250;10.412;2023-05-07T04:31:17;9.60;99.90
3866;DHT22;1948;53.250;10.412;2023-05-07T04:33:44;9.70;99.90
3866;DHT22;1948;53.250;10.412;2023-05-07T04:36:11;9.70;99.90
3866;DHT22;1948;53.250;10.412;2023-05-07T04:38:38;9.80;99.90
3866;DHT22;1948;53.250;10.412;2023-05-07T04:41:06;9.80;99.90
3866;DHT22;1948;53.250;10.412;2023-05-07T04:43:33;9.80;99.90
3866;DHT22;1948;53.250;10.412;2023-05-07T04:46:02;9.80;99.90
3866;DHT22;1948;53.250;10.412;2023-05-07T04:48:29;9.80;99.90
3866;DHT22;1948;53.250;10.412;2023-05-07T04:50:58;9.80;99.90
3866;DHT22;1948;53.250;10.412;2023-05-07T04:53:27;9.90;99.90
3866;DHT22;1948;53.250;10.412;2023-05-07T04:55:57;9.90;99.90
3866;DHT22;1948;53.250;10.412;2023-05-07T04:58:27;9.90;99.90
3866;DHT22;1948;53.250;10.412;2023-05-07T05:00:54;9.90;99.90
3866;DHT22;1948;53.250;10.412;2023-05-07T05:03:21;9.90;99.90
3866;DHT22;1948;53.250;10.412;2023-05-07T05:05:51;10.00;99.90
3866;DHT22;1948;53.250;10.412;2023-05-07T05:08:19;10.00;99.90
3866;DHT22;1948;53.250;10.412;2023-05-07T05:10:46;9.90;99.90
3866;DHT22;1948;53.250;10.412;2023-05-07T05:13:15;9.90;99.90
3866;DHT22;1948;53.250;10.412;2023-05-07T05:15:42;9.90;99.90
3866;DHT22;1948;53.250;10.412;2023-05-07T05:18:14;9.90;99.90
3866;DHT22;1948;53.250;10.412;2023-05-07T05:20:41;9.90;99.90
3866;DHT22;1948;53.250;10.412;2023-05-07T05:23:11;9.90;99.90
3866;DHT22;1948;53.250;10.412;2023-05-07T05:25:40;10.00;99.90
3866;DHT22;1948;53.250;10.412;2023-05-07T05:28:11;10.00;99.90
3866;DHT22;1948;53.250;10.412;2023-05-07T05:30:43;10.00;99.90
3866;DHT22;1948;53.250;10.412;2023-05-07T05:33:12;10.10;99.90
3866;DHT22;1948;53.250;10.412;2023-05-07T05:35:41;10.00;99.90
3866;DHT22;1948;53.250;10.412;2023-05-07T05:38:08;10.00;99.90
3866;DHT22;1948;53.250;10.412;2023-05-07T05:40:37;10.00;99.90
3866;DHT22;1948;53.250;10.412;2023-05-07T05:43:05;10.00;99.90
3866;DHT22;1948;53.250;10.412;2023-05-07T05:45:35;10.00;99.90
3866;DHT22;1948;53.250;10.412;2023-05-07T05:48:02;10.00;99.90
3866;DHT22;1948;53.250;10.412;2023-05-07T05:50:29;10.00;99.90
3866;DHT22;1948;53.250;10.412;2023-05-07T05:52:55;10.10;99.90
3866;DHT22;1948;53.250;10.412;2023-05-07T05:55:25;10.10;99.90
3866;DHT22;1948;53.250;10.412;2023-05-07T05:57:52;10.10;99.90
3866;DHT22;1948;53.250;10.412;2023-05-07T06:00:19;10.10;99.90
3866;DHT22;1948;53.250;10.412;2023-05-07T06:02:49;10.20;99.90
3866;DHT22;1948;53.250;10.412;2023-05-07T06:05:16;10.20;99.90
3866;DHT22;1948;53.250;10.412;2023-05-07T06:07:45;10.20;99.90
3866;DHT22;1948;53.250;10.412;2023-05-07T06:10:12;10.20;99.90
3866;DHT22;1948;53.250;10.412;2023-05-07T06:12:40;10.20;99.90
3866;DHT22;1948;53.250;10.412;2023-05-07T06:15:09;10.20;99.90
3866;DHT22;1948;53.250;10.412;2023-05-07T06:17:36;10.20;99.90
3866;DHT22;1948;53.250;10.412;2023-05-07T06:20:07;10.20;99.90
3866;DHT22;1948;53.250;10.412;2023-05-07T06:22:34;10.20;99.90
3866;DHT22;1948;53.250;10.412;2023-05-07T06:25:06;10.20;99.90
3866;DHT22;1948;53.250;10.412;2023-05-07T06:27:36;10.20;99.90
3866;DHT22;1948;53.250;10.412;2023-05-07T06:30:03;10.20;99.90
3866;DHT22;1948;53.250;10.412;2023-05-07T06:32:32;10.30;99.90
3866;DHT22;1948;53.250;10.412;2023-05-07T06:34:59;10.40;99.90
3866;DHT22;1948;53.250;10.412;2023-05-07T06:37:31;10.50;99.90
3866;DHT22;1948;53.250;10.412;2023-05-07T06:40:00;10.50;99.90
3866;DHT22;1948;53.250;10.412;2023-05-07T06:42:33;10.60;99.90
3866;DHT22;1948;53.250;10.412;2023-05-07T06:45:03;10.50;99.90
3866;DHT22;1948;53.250;10.412;2023-05-07T06:47:32;10.50;99.90
3866;DHT22;1948;53.250;10.412;2023-05-07T06:50:05;10.50;99.90
3866;DHT22;1948;53.250;10.412;2023-05-07T06:52:33;10.60;99.90
3866;DHT22;1948;53.250;10.412;2023-05-07T06:55:00;10.50;99.90
3866;DHT22;1948;53.250;10.412;2023-05-07T06:57:31;10.60;99.90
3866;DHT22;1948;53.250;10.412;2023-05-07T07:00:03;10.60;99.90
3866;DHT22;1948;53.250;10.412;2023-05-07T07:02:33;10.60;99.90
3866;DHT22;1948;53.250;10.412;2023-05-07T07:05:00;10.60;99.90
3866;DHT22;1948;53.250;10.412;2023-05-07T07:07:27;10.70;99.90
3866;DHT22;1948;53.250;10.412;2023-05-07T07:09:56;10.70;99.90
3866;DHT22;1948;53.250;10.412;2023-05-07T07:12:23;10.70;99.90
3866;DHT22;1948;53.250;10.412;2023-05-07T07:14:53;10.70;99.90
3866;DHT22;1948;53.250;10.412;2023-05-07T07:17:20;10.70;99.90
3866;DHT22;1948;53.250;10.412;2023-05-07T07:19:50;10.70;99.90
3866;DHT22;1948;53.250;10.412;2023-05-07T07:22:16;10.70;99.90
3866;DHT22;1948;53.250;10.412;2023-05-07T07:24:43;10.70;99.90
3866;DHT22;1948;53.250;10.412;2023-05-07T07:27:10;10.70;99.90
3866;DHT22;1948;53.250;10.412;2023-05-07T07:29:40;10.80;99.90
3866;DHT22;1948;53.250;10.412;2023-05-07T07:32:08;10.80;99.90
3866;DHT22;1948;53.250;10.412;2023-05-07T07:34:38;10.80;99.90
3866;DHT22;1948;53.250;10.412;2023-05-07T07:37:07;11.00;99.90
3866;DHT22;1948;53.250;10.412;2023-05-07T07:39:34;11.00;99.90
3866;DHT22;1948;53.250;10.412;2023-05-07T07:42:01;11.00;99.90
3866;DHT22;1948;53.250;10.412;2023-05-07T07:44:31;11.00;99.90
3866;DHT22;1948;53.250;10.412;2023-05-07T07:47:02;11.00;99.90
3866;DHT22;1948;53.250;10.412;2023-05-07T07:49:29;11.00;99.90
3866;DHT22;1948;53.250;10.412;2023-05-07T07:51:56;11.00;99.90
3866;DHT22;1948;53.250;10.412;2023-05-07T07:54:26;11.10;99.90
3866;DHT22;1948;53.250;10.412;2023-05-07T07:56:53;11.30;99.90
3866;DHT22;1948;53.250;10.412;2023-05-07T07:59:20;11.30;99.90
3866;DHT22;1948;53.250;10.412;2023-05-07T08:01:48;11.30;99.90
3866;DHT22;1948;53.250;10.412;2023-05-07T08:04:19;11.30;99.90
3866;DHT22;1948;53.250;10.412;2023-05-07T08:06:49;11.40;99.90
3866;DHT22;1948;53.250;10.412;2023-05-07T08:09:16;11.30;99.90
3866;DHT22;1948;53.250;10.412;2023-05-07T08:11:43;11.40;99.90
3866;DHT22;1948;53.250;10.412;2023-05-07T08:14:11;11.30;99.90
3866;DHT22;1948;53.250;10.412;2023-05-07T08:16:38;11.30;99.90
3866;DHT22;1948;53.250;10.412;2023-05-07T08:19:07;11.20;99.90
3866;DHT22;1948;53.250;10.412;2023-05-07T08:21:38;11.20;99.90
3866;DHT22;1948;53.250;10.412;2023-05-07T08:24:06;11.30;99.90
3866;DHT22;1948;53.250;10.412;2023-05-07T08:26:35;11.30;99.90
3866;DHT22;1948;53.250;10.412;2023-05-07T08:29:02;11.20;99.90
3866;DHT22;1948;53.250;10.412;2023-05-07T08:31:29;11.20;99.90
3866;DHT22;1948;53.250;10.412;2023-05-07T08:33:57;11.30;99.90
3866;DHT22;1948;53.250;10.412;2023-05-07T08:36:24;11.40;99.90
3866;DHT22;1948;53.250;10.412;2023-05-07T08:38:57;11.50;99.90
3866;DHT22;1948;53.250;10.412;2023-05-07T08:41:24;11.50;99.90
3866;DHT22;1948;53.250;10.412;2023-05-07T08:43:51;11.50;99.90
3866;DHT22;1948;53.250;10.412;2023-05-07T08:46:22;11.70;99.90
3866;DHT22;1948;53.250;10.412;2023-05-07T08:48:50;11.80;99.90
3866;DHT22;1948;53.250;10.412;2023-05-07T08:51:19;11.80;99.90
3866;DHT22;1948;53.250;10.412;2023-05-07T08:53:52;11.70;99.90
3866;DHT22;1948;53.250;10.412;2023-05-07T08:56:21;11.70;99.90
3866;DHT22;1948;53.250;10.412;2023-05-07T08:58:48;11.70;99.90
3866;DHT22;1948;53.250;10.412;2023-05-07T09:01:20;11.70;99.90
3866;DHT22;1948;53.250;10.412;2023-05-07T09:03:47;11.80;99.90
3866;DHT22;1948;53.250;10.412;2023-05-07T09:06:15;11.90;99.90
3866;DHT22;1948;53.250;10.412;2023-05-07T09:08:49;11.90;99.90
3866;DHT22;1948;53.250;10.412;2023-05-07T09:11:21;11.80;99.90
3866;DHT22;1948;53.250;10.412;2023-05-07T09:13:53;11.70;99.90
3866;DHT22;1948;53.250;10.412;2023-05-07T09:16:23;11.60;99.90
3866;DHT22;1948;53.250;10.412;2023-05-07T09:18:54;11.70;99.90
3866;DHT22;1948;53.250;10.412;2023-05-07T09:21:21;11.80;99.90
3866;DHT22;1948;53.250;10.412;2023-05-07T09:23:51;12.00;99.90
3866;DHT22;1948;53.250;10.412;2023-05-07T09:26:21;12.10;99.90
3866;DHT22;1948;53.250;10.412;2023-05-07T09:28:52;12.00;99.90
3866;DHT22;1948;53.250;10.412;2023-05-07T09:31:21;12.00;99.90
3866;DHT22;1948;53.250;10.412;2023-05-07T09:33:50;12.00;99.90
3866;DHT22;1948;53.250;10.412;2023-05-07T09:36:22;12.00;99.90
3866;DHT22;1948;53.250;10.412;2023-05-07T09:38:54;12.00;99.90
3866;DHT22;1948;53.250;10.412;2023-05-07T09:41:23;12.00;99.90
3866;DHT22;1948;53.250;10.412;2023-05-07T09:43:54;12.10;99.90
3866;DHT22;1948;53.250;10.412;2023-05-07T09:46:27;12.10;99.90
3866;DHT22;1948;53.250;10.412;2023-05-07T09:48:57;12.00;99.90
3866;DHT22;1948;53.250;10.412;2023-05-07T09:51:29;12.00;99.90
3866;DHT22;1948;53.250;10.412;2023-05-07T09:54:02;12.20;99.90
3866;DHT22;1948;53.250;10.412;2023-05-07T09:56:32;12.20;99.90
3866;DHT22;1948;53.250;10.412;2023-05-07T09:59:00;12.20;99.90
3866;DHT22;1948;53.250;10.412;2023-05-07T10:01:27;12.20;99.90
3866;DHT22;1948;53.250;10.412;2023-05-07T10:03:55;12.20;99.90
3866;DHT22;1948;53.250;10.412;2023-05-07T10:06:24;12.30;99.90
3866;DHT22;1948;53.250;10.412;2023-05-07T10:08:54;12.20;99.90
3866;DHT22;1948;53.250;10.412;2023-05-07T10:11:25;12.20;99.90
3866;DHT22;1948;53.250;10.412;2023-05-07T10:13:53;12.20;99.90
3866;DHT22;1948;53.250;10.412;2023-05-07T10:16:21;12.20;99.90
3866;DHT22;1948;53.250;10.412;2023-05-07T10:18:48;12.40;99.90
3866;DHT22;1948;53.250;10.412;2023-05-07T10:21:21;12.50;99.90
3866;DHT22;1948;53.250;10.412;2023-05-07T10:23:59;12.60;99.90
3866;DHT22;1948;53.250;10.412;2023-05-07T10:26:34;12.70;99.90
3866;DHT22;1948;53.250;10.412;2023-05-07T10:29:11;12.80;99.90
3866;DHT22;1948;53.250;10.412;2023-05-07T10:31:52;12.80;99.90
3866;DHT22;1948;53.250;10.412;2023-05-07T10:34:29;12.80;99.90
3866;DHT22;1948;53.250;10.412;2023-05-07T10:37:01;12.70;99.90
3866;DHT22;1948;53.250;10.412;2023-05-07T10:39:29;12.80;99.90
3866;DHT22;1948;53.250;10.412;2023-05-07T10:42:09;13.00;99.90
3866;DHT22;1948;53.250;10.412;2023-05-07T10:44:37;13.00;99.90
3866;DHT22;1948;53.250;10.412;2023-05-07T10:47:09;13.10;99.90
3866;DHT22;1948;53.250;10.412;2023-05-07T10:52:35;12.90;99.90
3866;DHT22;1948;53.250;10.412;2023-05-07T10:57:47;12.90;99.90
3866;DHT22;1948;53.250;10.412;2023-05-07T11:03:05;13.10;99.90
3866;DHT22;1948;53.250;10.412;2023-05-07T11:05:34;13.10;99.90
3866;DHT22;1948;53.250;10.412;2023-05-07T11:08:05;13.10;99.90
3866;DHT22;1948;53.250;10.412;2023-05-07T11:10:53;13.10;99.90
3866;DHT22;1948;53.250;10.412;2023-05-07T11:13:45;13.20;99.90
3866;DHT22;1948;53.250;10.412;2023-05-07T11:16:20;13.20;99.90
3866;DHT22;1948;53.250;10.412;2023-05-07T11:18:48;13.50;99.90
3866;DHT22;1948;53.250;10.412;2023-05-07T11:21:46;13.80;99.90
3866;DHT22;1948;53.250;10.412;2023-05-07T11:24:16;14.10;99.90
3866;DHT22;1948;53.250;10.412;2023-05-07T11:26:47;14.30;99.90
3866;DHT22;1948;53.250;10.412;2023-05-07T11:29:20;14.40;99.90
3866;DHT22;1948;53.250;10.412;2023-05-07T11:31:53;14.70;99.90
3866;DHT22;1948;53.250;10.412;2023-05-07T11:34:25;15.10;99.90
3866;DHT22;1948;53.250;10.412;2023-05-07T11:36:53;15.20;99.90
3866;DHT22;1948;53.250;10.412;2023-05-07T11:39:29;15.20;99.90
3866;DHT22;1948;53.250;10.412;2023-05-07T11:42:02;15.20;99.90
3866;DHT22;1948;53.250;10.412;2023-05-07T11:44:43;15.00;99.90
3866;DHT22;1948;53.250;10.412;2023-05-07T11:47:18;15.10;99.90
3866;DHT22;1948;53.250;10.412;2023-05-07T11:49:53;15.10;99.90
3866;DHT22;1948;53.250;10.412;2023-05-07T11:52:23;15.40;99.90
3866;DHT22;1948;53.250;10.412;2023-05-07T11:54:52;15.50;99.90
3866;DHT22;1948;53.250;10.412;2023-05-07T11:57:22;15.70;99.90
3866;DHT22;1948;53.250;10.412;2023-05-07T11:59:53;15.70;99.90
3866;DHT22;1948;53.250;10.412;2023-05-07T12:02:25;15.70;99.90
3866;DHT22;1948;53.250;10.412;2023-05-07T12:04:53;15.50;99.90
3866;DHT22;1948;53.250;10.412;2023-05-07T12:07:21;15.50;99.90
3866;DHT22;1948;53.250;10.412;2023-05-07T12:09:53;15.30;99.90
3866;DHT22;1948;53.250;10.412;2023-05-07T12:12:20;15.30;99.90
3866;DHT22;1948;53.250;10.412;2023-05-07T12:14:49;15.20;99.90
3866;DHT22;1948;53.250;10.412;2023-05-07T12:17:17;15.30;99.90
3866;DHT22;1948;53.250;10.412;2023-05-07T12:19:44;15.30;99.90
3866;DHT22;1948;53.250;10.412;2023-05-07T12:22:12;15.20;99.90
3866;DHT22;1948;53.250;10.412;2023-05-07T12:24:55;15.20;99.90
3866;DHT22;1948;53.250;10.412;2023-05-07T12:27:25;15.30;99.90
3866;DHT22;1948;53.250;10.412;2023-05-07T12:29:57;15.40;99.90
3866;DHT22;1948;53.250;10.412;2023-05-07T12:32:36;15.50;99.90
3866;DHT22;1948;53.250;10.412;2023-05-07T12:35:05;15.70;99.90
3866;DHT22;1948;53.250;10.412;2023-05-07T12:37:35;15.40;99.90
3866;DHT22;1948;53.250;10.412;2023-05-07T12:40:06;15.80;99.90
3866;DHT22;1948;53.250;10.412;2023-05-07T12:42:43;16.30;99.90
3866;DHT22;1948;53.250;10.412;2023-05-07T12:45:15;16.80;99.90
3866;DHT22;1948;53.250;10.412;2023-05-07T12:47:46;16.80;99.90
3866;DHT22;1948;53.250;10.412;2023-05-07T12:50:15;16.70;99.90
3866;DHT22;1948;53.250;10.412;2023-05-07T12:52:48;16.90;99.90
3866;DHT22;1948;53.250;10.412;2023-05-07T12:55:16;16.90;99.90
3866;DHT22;1948;53.250;10.412;2023-05-07T12:57:48;16.90;99.90
3866;DHT22;1948;53.250;10.412;2023-05-07T13:00:17;17.00;99.90
3866;DHT22;1948;53.250;10.412;2023-05-07T13:02:47;17.20;99.90
3866;DHT22;1948;53.250;10.412;2023-05-07T13:05:14;17.20;99.90
3866;DHT22;1948;53.250;10.412;2023-05-07T13:07:53;17.30;99.90
3866;DHT22;1948;53.250;10.412;2023-05-07T13:10:24;17.20;99.90
3866;DHT22;1948;53.250;10.412;2023-05-07T13:12:51;16.80;99.90
3866;DHT22;1948;53.250;10.412;2023-05-07T13:15:19;16.90;99.90
3866;DHT22;1948;53.250;10.412;2023-05-07T13:17:47;17.00;99.90
3866;DHT22;1948;53.250;10.412;2023-05-07T13:20:14;17.10;99.90
3866;DHT22;1948;53.250;10.412;2023-05-07T13:22:44;17.10;99.90
3866;DHT22;1948;53.250;10.412;2023-05-07T13:25:11;17.10;99.90
3866;DHT22;1948;53.250;10.412;2023-05-07T13:27:41;17.20;99.90
3866;DHT22;1948;53.250;10.412;2023-05-07T13:30:22;16.90;99.90
3866;DHT22;1948;53.250;10.412;2023-05-07T13:32:52;17.10;99.90
3866;DHT22;1948;53.250;10.412;2023-05-07T13:35:20;17.20;99.90
3866;DHT22;1948;53.250;10.412;2023-05-07T13:37:50;17.10;99.90
3866;DHT22;1948;53.250;10.412;2023-05-07T13:40:18;17.40;99.90
3866;DHT22;1948;53.250;10.412;2023-05-07T13:42:49;17.50;99.90
3866;DHT22;1948;53.250;10.412;2023-05-07T13:45:20;17.50;99.90
3866;DHT22;1948;53.250;10.412;2023-05-07T13:47:47;17.60;99.90
3866;DHT22;1948;53.250;10.412;2023-05-07T13:50:17;17.50;99.90
3866;DHT22;1948;53.250;10.412;2023-05-07T13:52:47;17.40;99.90
3866;DHT22;1948;53.250;10.412;2023-05-07T13:55:18;17.40;99.90
3866;DHT22;1948;53.250;10.412;2023-05-07T13:57:53;17.40;99.90
3866;DHT22;1948;53.250;10.412;2023-05-07T14:00:23;17.60;99.90
3866;DHT22;1948;53.250;10.412;2023-05-07T14:02:55;17.80;99.90
3866;DHT22;1948;53.250;10.412;2023-05-07T14:05:23;17.70;99.90
3866;DHT22;1948;53.250;10.412;2023-05-07T14:07:51;17.50;99.90
3866;DHT22;1948;53.250;10.412;2023-05-07T14:10:19;17.10;99.90
3866;DHT22;1948;53.250;10.412;2023-05-07T14:12:46;17.10;99.90
3866;DHT22;1948;53.250;10.412;2023-05-07T14:15:13;17.20;99.90
3866;DHT22;1948;53.250;10.412;2023-05-07T14:17:43;17.30;99.90
3866;DHT22;1948;53.250;10.412;2023-05-07T14:20:15;17.30;99.90
3866;DHT22;1948;53.250;10.412;2023-05-07T14:22:42;17.30;99.90
3866;DHT22;1948;53.250;10.412;2023-05-07T14:25:15;17.40;99.90
3866;DHT22;1948;53.250;10.412;2023-05-07T14:27:45;17.50;99.90
3866;DHT22;1948;53.250;10.412;2023-05-07T14:30:14;17.50;99.90
3866;DHT22;1948;53.250;10.412;2023-05-07T14:32:41;17.60;99.90
3866;DHT22;1948;53.250;10.412;2023-05-07T14:35:10;17.60;99.90
3866;DHT22;1948;53.250;10.412;2023-05-07T14:37:38;17.70;99.90
3866;DHT22;1948;53.250;10.412;2023-05-07T14:40:05;17.80;99.90
3866;DHT22;1948;53.250;10.412;2023-05-07T14:42:33;17.90;99.90
3866;DHT22;1948;53.250;10.412;2023-05-07T14:45:01;18.00;99.90
3866;DHT22;1948;53.250;10.412;2023-05-07T14:47:28;17.90;99.90
3866;DHT22;1948;53.250;10.412;2023-05-07T14:49:55;17.80;99.90
3866;DHT22;1948;53.250;10.412;2023-05-07T14:52:24;17.90;99.90
3866;DHT22;1948;53.250;10.412;2023-05-07T14:54:51;18.00;99.90
3866;DHT22;1948;53.250;10.412;2023-05-07T14:57:21;18.00;99.90
3866;DHT22;1948;53.250;10.412;2023-05-07T14:59:48;18.10;99.90
3866;DHT22;1948;53.250;10.412;2023-05-07T15:02:15;18.20;99.90
3866;DHT22;1948;53.250;10.412;2023-05-07T15:04:47;18.40;99.90
3866;DHT22;1948;53.250;10.412;2023-05-07T15:07:16;18.60;99.90
3866;DHT22;1948;53.250;10.412;2023-05-07T15:09:44;18.60;99.90
3866;DHT22;1948;53.250;10.412;2023-05-07T15:12:11;18.50;99.90
3866;DHT22;1948;53.250;10.412;2023-05-07T15:14:39;18.30;99.90
3866;DHT22;1948;53.250;10.412;2023-05-07T15:17:06;18.20;99.90
3866;DHT22;1948;53.250;10.412;2023-05-07T15:19:36;18.10;99.90
3866;DHT22;1948;53.250;10.412;2023-05-07T15:22:03;18.10;99.90
3866;DHT22;1948;53.250;10.412;2023-05-07T15:24:30;18.10;99.90
3866;DHT22;1948;53.250;10.412;2023-05-07T15:26:57;18.10;99.90
3866;DHT22;1948;53.250;10.412;2023-05-07T15:29:24;18.00;99.90
3866;DHT22;1948;53.250;10.412;2023-05-07T15:31:51;18.00;99.90
3866;DHT22;1948;53.250;10.412;2023-05-07T15:34:18;18.00;99.90
3866;DHT22;1948;53.250;10.412;2023-05-07T15:36:55;18.00;99.90
3866;DHT22;1948;53.250;10.412;2023-05-07T15:39:54;18.00;99.90
3866;DHT22;1948;53.250;10.412;2023-05-07T15:42:32;18.10;99.90
3866;DHT22;1948;53.250;10.412;2023-05-07T15:45:08;18.10;99.90
3866;DHT22;1948;53.250;10.412;2023-05-07T15:47:41;18.00;99.90
3866;DHT22;1948;53.250;10.412;2023-05-07T15:50:15;17.70;99.90
3866;DHT22;1948;53.250;10.412;2023-05-07T15:52:46;17.40;99.90
3866;DHT22;1948;53.250;10.412;2023-05-07T15:55:16;17.50;99.90
3866;DHT22;1948;53.250;10.412;2023-05-07T15:57:46;17.50;99.90
3866;DHT22;1948;53.250;10.412;2023-05-07T16:00:13;17.50;99.90
3866;DHT22;1948;53.250;10.412;2023-05-07T16:02:44;17.30;99.90
3866;DHT22;1948;53.250;10.412;2023-05-07T16:05:11;17.30;99.90
3866;DHT22;1948;53.250;10.412;2023-05-07T16:07:39;17.30;99.90
3866;DHT22;1948;53.250;10.412;2023-05-07T16:10:10;17.40;99.90
3866;DHT22;1948;53.250;10.412;2023-05-07T16:12:40;17.50;99.90